FIMR METAR and TAF | Updated Today

FIMR METAR

Sir Charles Gaetan Duval Airport

Sir Charles Gaetan Duval Airport (FIMR) hasn't published a METAR.
We found the following current weather conditions for Plaine Corail from other sources.

Sir Charles Gaetan Duval Airport (FIMR) METAR

  • Weather conditions right now at FIMR:
  • Present conditions: Rain
  • Clouds: Light rain
  • Cloud cover: 43%
  • Wind: 116 at 15kts
  • Temperature: 24 celsius
  • Feels like: 24.6 celsius
  • Pressure: 1018mb
  • Humidity: 82%


Useful to know...

FIMR TAF

Sir Charles Gaetan Duval Airport

TAF FIMR 251710Z 2518/2612 10015G28KT 9999 SCT018 TEMPO 2522/2612 7000 -SHRA FEW010 BKN016
Observation time: 1:44 hr. ago
Need help? Read our tutorial on how to read TAFs or read the parsed version below.

Parsed version of TAF for Sir Charles Gaetan Duval Airport (FIMR)

  • From 25 May at 18:00 UTC, to day 26 of the month at 12:00 UTC
  • Clouds: Scattered at 549 meters
  • Visibility: Greater than 10 km
  • Wind: 100 degrees at 15
  • Expected to arise temporarily, from 25 May at 22:00 UTC, to day 26 of the month at 12:00 UTC
  • Clouds: A few at 305 meters; broken sky at 488 meters
  • Visibility: 7000 meters
  • Other: Light showers of rain

Airports near FIMR

No airports found within 100nm radius.